sensor_id;sensor_type;location;lat;lon;timestamp;temperature;humidity
4749;DHT22;2388;53.582;9.962;2023-10-08T00:01:15;12.40;99.90
4749;DHT22;2388;53.582;9.962;2023-10-08T00:03:45;12.50;99.90
4749;DHT22;2388;53.582;9.962;2023-10-08T00:06:19;12.40;99.90
4749;DHT22;2388;53.582;9.962;2023-10-08T00:08:45;12.40;99.90
4749;DHT22;2388;53.582;9.962;2023-10-08T00:11:11;12.40;99.90
4749;DHT22;2388;53.582;9.962;2023-10-08T00:13:37;12.50;99.90
4749;DHT22;2388;53.582;9.962;2023-10-08T00:16:07;12.40;99.90
4749;DHT22;2388;53.582;9.962;2023-10-08T00:18:37;12.40;99.90
4749;DHT22;2388;53.582;9.962;2023-10-08T00:21:04;12.50;99.90
4749;DHT22;2388;53.582;9.962;2023-10-08T00:23:36;12.40;99.90
4749;DHT22;2388;53.582;9.962;2023-10-08T00:26:10;12.50;99.90
4749;DHT22;2388;53.582;9.962;2023-10-08T00:28:36;12.40;99.90
4749;DHT22;2388;53.582;9.962;2023-10-08T00:31:02;12.50;99.90
4749;DHT22;2388;53.582;9.962;2023-10-08T00:33:38;12.40;99.90
4749;DHT22;2388;53.582;9.962;2023-10-08T00:36:05;12.50;99.90
4749;DHT22;2388;53.582;9.962;2023-10-08T00:38:48;12.40;99.90
4749;DHT22;2388;53.582;9.962;2023-10-08T00:41:20;12.40;99.90
4749;DHT22;2388;53.582;9.962;2023-10-08T00:43:49;12.40;99.90
4749;DHT22;2388;53.582;9.962;2023-10-08T00:46:16;12.40;99.90
4749;DHT22;2388;53.582;9.962;2023-10-08T00:48:52;12.40;99.90
4749;DHT22;2388;53.582;9.962;2023-10-08T00:51:22;12.40;99.90
4749;DHT22;2388;53.582;9.962;2023-10-08T00:56:18;12.40;99.90
4749;DHT22;2388;53.582;9.962;2023-10-08T00:58:45;12.30;99.90
4749;DHT22;2388;53.582;9.962;2023-10-08T01:01:19;12.30;99.90
4749;DHT22;2388;53.582;9.962;2023-10-08T01:03:48;12.40;99.90
4749;DHT22;2388;53.582;9.962;2023-10-08T01:06:16;12.30;99.90
4749;DHT22;2388;53.582;9.962;2023-10-08T01:08:44;12.40;99.90
4749;DHT22;2388;53.582;9.962;2023-10-08T01:11:25;12.40;99.90
4749;DHT22;2388;53.582;9.962;2023-10-08T01:14:08;12.40;99.90
4749;DHT22;2388;53.582;9.962;2023-10-08T01:16:33;12.40;99.90
4749;DHT22;2388;53.582;9.962;2023-10-08T01:19:00;12.40;99.90
4749;DHT22;2388;53.582;9.962;2023-10-08T01:21:28;12.40;99.90
4749;DHT22;2388;53.582;9.962;2023-10-08T01:24:01;12.40;99.90
4749;DHT22;2388;53.582;9.962;2023-10-08T01:26:28;12.30;99.90
4749;DHT22;2388;53.582;9.962;2023-10-08T01:28:57;12.40;99.90
4749;DHT22;2388;53.582;9.962;2023-10-08T01:31:22;12.40;99.90
4749;DHT22;2388;53.582;9.962;2023-10-08T01:33:48;12.30;99.90
4749;DHT22;2388;53.582;9.962;2023-10-08T01:36:16;12.40;99.90
4749;DHT22;2388;53.582;9.962;2023-10-08T01:38:42;12.30;99.90
4749;DHT22;2388;53.582;9.962;2023-10-08T01:41:08;12.40;99.90
4749;DHT22;2388;53.582;9.962;2023-10-08T01:44:06;12.40;99.90
4749;DHT22;2388;53.582;9.962;2023-10-08T01:46:33;12.40;99.90
4749;DHT22;2388;53.582;9.962;2023-10-08T01:49:00;12.40;99.90
4749;DHT22;2388;53.582;9.962;2023-10-08T01:51:30;12.40;99.90
4749;DHT22;2388;53.582;9.962;2023-10-08T01:54:10;12.30;99.90
4749;DHT22;2388;53.582;9.962;2023-10-08T01:56:41;12.40;99.90
4749;DHT22;2388;53.582;9.962;2023-10-08T01:59:10;12.30;99.90
4749;DHT22;2388;53.582;9.962;2023-10-08T02:01:37;12.30;99.90
4749;DHT22;2388;53.582;9.962;2023-10-08T02:04:05;12.30;99.90
4749;DHT22;2388;53.582;9.962;2023-10-08T02:06:33;12.30;99.90
4749;DHT22;2388;53.582;9.962;2023-10-08T02:08:58;12.30;99.90
4749;DHT22;2388;53.582;9.962;2023-10-08T02:11:24;12.30;99.90
4749;DHT22;2388;53.582;9.962;2023-10-08T02:13:53;12.30;99.90
4749;DHT22;2388;53.582;9.962;2023-10-08T02:16:18;12.30;99.90
4749;DHT22;2388;53.582;9.962;2023-10-08T02:18:44;12.30;99.90
4749;DHT22;2388;53.582;9.962;2023-10-08T02:21:11;12.30;99.90
4749;DHT22;2388;53.582;9.962;2023-10-08T02:23:37;12.30;99.90
4749;DHT22;2388;53.582;9.962;2023-10-08T02:26:02;12.30;99.90
4749;DHT22;2388;53.582;9.962;2023-10-08T02:28:28;12.30;99.90
4749;DHT22;2388;53.582;9.962;2023-10-08T02:30:54;12.30;99.90
4749;DHT22;2388;53.582;9.962;2023-10-08T02:33:19;12.30;99.90
4749;DHT22;2388;53.582;9.962;2023-10-08T02:35:46;12.30;99.90
4749;DHT22;2388;53.582;9.962;2023-10-08T02:38:13;12.30;99.90
4749;DHT22;2388;53.582;9.962;2023-10-08T02:40:39;12.30;99.90
4749;DHT22;2388;53.582;9.962;2023-10-08T02:43:10;12.20;99.90
4749;DHT22;2388;53.582;9.962;2023-10-08T02:45:37;12.20;99.90
4749;DHT22;2388;53.582;9.962;2023-10-08T02:48:07;12.20;99.90
4749;DHT22;2388;53.582;9.962;2023-10-08T02:50:38;12.10;99.90
4749;DHT22;2388;53.582;9.962;2023-10-08T02:53:05;12.10;99.90
4749;DHT22;2388;53.582;9.962;2023-10-08T02:55:38;12.20;99.90
4749;DHT22;2388;53.582;9.962;2023-10-08T02:58:12;12.20;99.90
4749;DHT22;2388;53.582;9.962;2023-10-08T03:00:45;12.20;99.90
4749;DHT22;2388;53.582;9.962;2023-10-08T03:03:13;12.10;99.90
4749;DHT22;2388;53.582;9.962;2023-10-08T03:05:47;12.20;99.90
4749;DHT22;2388;53.582;9.962;2023-10-08T03:08:16;12.10;99.90
4749;DHT22;2388;53.582;9.962;2023-10-08T03:10:47;12.10;99.90
4749;DHT22;2388;53.582;9.962;2023-10-08T03:13:15;12.10;99.90
4749;DHT22;2388;53.582;9.962;2023-10-08T03:15:42;12.10;99.90
4749;DHT22;2388;53.582;9.962;2023-10-08T03:18:26;12.00;99.90
4749;DHT22;2388;53.582;9.962;2023-10-08T03:21:00;12.00;99.90
4749;DHT22;2388;53.582;9.962;2023-10-08T03:23:29;12.10;99.90
4749;DHT22;2388;53.582;9.962;2023-10-08T03:26:03;12.10;99.90
4749;DHT22;2388;53.582;9.962;2023-10-08T03:28:35;12.10;99.90
4749;DHT22;2388;53.582;9.962;2023-10-08T03:31:01;12.00;99.90
4749;DHT22;2388;53.582;9.962;2023-10-08T03:33:34;12.10;99.90
4749;DHT22;2388;53.582;9.962;2023-10-08T03:36:02;12.00;99.90
4749;DHT22;2388;53.582;9.962;2023-10-08T03:38:49;12.00;99.90
4749;DHT22;2388;53.582;9.962;2023-10-08T03:41:26;12.00;99.90
4749;DHT22;2388;53.582;9.962;2023-10-08T03:43:55;11.90;99.90
4749;DHT22;2388;53.582;9.962;2023-10-08T03:46:28;11.90;99.90
4749;DHT22;2388;53.582;9.962;2023-10-08T03:48:54;11.90;99.90
4749;DHT22;2388;53.582;9.962;2023-10-08T03:51:23;11.90;99.90
4749;DHT22;2388;53.582;9.962;2023-10-08T03:53:52;11.90;99.90
4749;DHT22;2388;53.582;9.962;2023-10-08T03:56:28;11.90;99.90
4749;DHT22;2388;53.582;9.962;2023-10-08T03:58:57;11.80;99.90
4749;DHT22;2388;53.582;9.962;2023-10-08T04:01:26;11.80;99.90
4749;DHT22;2388;53.582;9.962;2023-10-08T04:03:57;11.90;99.90
4749;DHT22;2388;53.582;9.962;2023-10-08T04:06:27;11.80;99.90
4749;DHT22;2388;53.582;9.962;2023-10-08T04:09:16;11.80;99.90
4749;DHT22;2388;53.582;9.962;2023-10-08T04:11:44;11.80;99.90
4749;DHT22;2388;53.582;9.962;2023-10-08T04:14:18;11.90;99.90
4749;DHT22;2388;53.582;9.962;2023-10-08T04:16:44;11.90;99.90
4749;DHT22;2388;53.582;9.962;2023-10-08T04:19:11;11.90;99.90
4749;DHT22;2388;53.582;9.962;2023-10-08T04:21:37;11.80;99.90
4749;DHT22;2388;53.582;9.962;2023-10-08T04:24:03;11.80;99.90
4749;DHT22;2388;53.582;9.962;2023-10-08T04:26:32;11.80;99.90
4749;DHT22;2388;53.582;9.962;2023-10-08T04:28:59;11.80;99.90
4749;DHT22;2388;53.582;9.962;2023-10-08T04:31:29;11.80;99.90
4749;DHT22;2388;53.582;9.962;2023-10-08T04:34:04;11.70;99.90
4749;DHT22;2388;53.582;9.962;2023-10-08T04:36:45;11.70;99.90
4749;DHT22;2388;53.582;9.962;2023-10-08T04:39:14;11.70;99.90
4749;DHT22;2388;53.582;9.962;2023-10-08T04:41:47;11.60;99.90
4749;DHT22;2388;53.582;9.962;2023-10-08T04:44:14;11.70;99.90
4749;DHT22;2388;53.582;9.962;2023-10-08T04:46:42;11.70;99.90
4749;DHT22;2388;53.582;9.962;2023-10-08T04:49:10;11.70;99.90
4749;DHT22;2388;53.582;9.962;2023-10-08T04:51:48;11.70;99.90
4749;DHT22;2388;53.582;9.962;2023-10-08T04:54:14;11.80;99.90
4749;DHT22;2388;53.582;9.962;2023-10-08T04:56:43;11.80;99.90
4749;DHT22;2388;53.582;9.962;2023-10-08T04:59:09;11.70;99.90
4749;DHT22;2388;53.582;9.962;2023-10-08T05:01:37;11.70;99.90
4749;DHT22;2388;53.582;9.962;2023-10-08T05:04:22;11.70;99.90
4749;DHT22;2388;53.582;9.962;2023-10-08T05:06:52;11.60;99.90
4749;DHT22;2388;53.582;9.962;2023-10-08T05:09:26;11.60;99.90
4749;DHT22;2388;53.582;9.962;2023-10-08T05:12:06;11.60;99.90
4749;DHT22;2388;53.582;9.962;2023-10-08T05:15:00;11.60;99.90
4749;DHT22;2388;53.582;9.962;2023-10-08T05:17:41;11.50;99.90
4749;DHT22;2388;53.582;9.962;2023-10-08T05:20:20;11.60;99.90
4749;DHT22;2388;53.582;9.962;2023-10-08T05:23:11;11.50;99.90
4749;DHT22;2388;53.582;9.962;2023-10-08T05:25:45;11.50;99.90
4749;DHT22;2388;53.582;9.962;2023-10-08T05:28:26;11.50;99.90
4749;DHT22;2388;53.582;9.962;2023-10-08T05:30:53;11.50;99.90
4749;DHT22;2388;53.582;9.962;2023-10-08T05:33:20;11.50;99.90
4749;DHT22;2388;53.582;9.962;2023-10-08T05:35:50;11.50;99.90
4749;DHT22;2388;53.582;9.962;2023-10-08T05:38:21;11.50;99.90
4749;DHT22;2388;53.582;9.962;2023-10-08T05:40:56;11.50;99.90
4749;DHT22;2388;53.582;9.962;2023-10-08T05:43:43;11.50;99.90
4749;DHT22;2388;53.582;9.962;2023-10-08T05:46:13;11.50;99.90
4749;DHT22;2388;53.582;9.962;2023-10-08T05:48:56;11.50;99.90
4749;DHT22;2388;53.582;9.962;2023-10-08T05:51:35;11.50;99.90
4749;DHT22;2388;53.582;9.962;2023-10-08T05:54:14;11.50;99.90
4749;DHT22;2388;53.582;9.962;2023-10-08T05:56:56;11.50;99.90
4749;DHT22;2388;53.582;9.962;2023-10-08T06:02:26;11.40;99.90
4749;DHT22;2388;53.582;9.962;2023-10-08T06:04:57;11.40;99.90
4749;DHT22;2388;53.582;9.962;2023-10-08T06:10:29;11.30;99.90
4749;DHT22;2388;53.582;9.962;2023-10-08T06:13:05;11.30;99.90
4749;DHT22;2388;53.582;9.962;2023-10-08T06:15:43;11.30;99.90
4749;DHT22;2388;53.582;9.962;2023-10-08T06:18:15;11.30;99.90
4749;DHT22;2388;53.582;9.962;2023-10-08T06:20:42;11.30;99.90
4749;DHT22;2388;53.582;9.962;2023-10-08T06:23:14;11.30;99.90
4749;DHT22;2388;53.582;9.962;2023-10-08T06:25:44;11.20;99.90
4749;DHT22;2388;53.582;9.962;2023-10-08T06:28:14;11.20;99.90
4749;DHT22;2388;53.582;9.962;2023-10-08T06:30:41;11.30;99.90
4749;DHT22;2388;53.582;9.962;2023-10-08T06:33:07;11.30;99.90
4749;DHT22;2388;53.582;9.962;2023-10-08T06:35:33;11.30;99.90
4749;DHT22;2388;53.582;9.962;2023-10-08T06:37:59;11.30;99.90
4749;DHT22;2388;53.582;9.962;2023-10-08T06:40:26;11.30;99.90
4749;DHT22;2388;53.582;9.962;2023-10-08T06:43:17;11.30;99.90
4749;DHT22;2388;53.582;9.962;2023-10-08T06:45:50;11.30;99.90
4749;DHT22;2388;53.582;9.962;2023-10-08T06:48:22;11.30;99.90
4749;DHT22;2388;53.582;9.962;2023-10-08T06:50:52;11.50;99.90
4749;DHT22;2388;53.582;9.962;2023-10-08T06:53:22;11.60;99.90
4749;DHT22;2388;53.582;9.962;2023-10-08T06:55:48;11.70;99.90
4749;DHT22;2388;53.582;9.962;2023-10-08T06:58:20;11.80;99.90
4749;DHT22;2388;53.582;9.962;2023-10-08T07:00:45;11.80;99.90
4749;DHT22;2388;53.582;9.962;2023-10-08T07:03:15;11.90;99.90
4749;DHT22;2388;53.582;9.962;2023-10-08T07:05:45;12.00;99.90
4749;DHT22;2388;53.582;9.962;2023-10-08T07:08:20;12.10;99.90
4749;DHT22;2388;53.582;9.962;2023-10-08T07:10:49;12.10;99.90
4749;DHT22;2388;53.582;9.962;2023-10-08T07:13:15;12.20;99.90
4749;DHT22;2388;53.582;9.962;2023-10-08T07:15:45;12.20;99.90
4749;DHT22;2388;53.582;9.962;2023-10-08T07:18:11;12.20;99.90
4749;DHT22;2388;53.582;9.962;2023-10-08T07:20:44;12.10;99.90
4749;DHT22;2388;53.582;9.962;2023-10-08T07:23:11;12.00;99.90
4749;DHT22;2388;53.582;9.962;2023-10-08T07:25:55;12.00;99.90
4749;DHT22;2388;53.582;9.962;2023-10-08T07:28:40;12.00;99.90
4749;DHT22;2388;53.582;9.962;2023-10-08T07:31:22;11.90;99.90
4749;DHT22;2388;53.582;9.962;2023-10-08T07:33:54;12.00;99.90
4749;DHT22;2388;53.582;9.962;2023-10-08T07:36:26;11.90;99.90
4749;DHT22;2388;53.582;9.962;2023-10-08T07:38:52;12.00;99.90
4749;DHT22;2388;53.582;9.962;2023-10-08T07:41:19;11.90;99.90
4749;DHT22;2388;53.582;9.962;2023-10-08T07:43:48;12.00;99.90
4749;DHT22;2388;53.582;9.962;2023-10-08T07:46:27;12.00;99.90
4749;DHT22;2388;53.582;9.962;2023-10-08T07:48:56;12.00;99.90
4749;DHT22;2388;53.582;9.962;2023-10-08T07:51:24;12.00;99.90
4749;DHT22;2388;53.582;9.962;2023-10-08T07:53:52;12.00;99.90
4749;DHT22;2388;53.582;9.962;2023-10-08T07:56:25;12.00;99.90
4749;DHT22;2388;53.582;9.962;2023-10-08T07:58:54;12.00;99.90
4749;DHT22;2388;53.582;9.962;2023-10-08T08:01:23;12.00;99.90
4749;DHT22;2388;53.582;9.962;2023-10-08T08:03:50;12.00;99.90
4749;DHT22;2388;53.582;9.962;2023-10-08T08:06:16;12.00;99.90
4749;DHT22;2388;53.582;9.962;2023-10-08T08:08:42;12.10;99.90
4749;DHT22;2388;53.582;9.962;2023-10-08T08:11:09;12.10;99.90
4749;DHT22;2388;53.582;9.962;2023-10-08T08:13:41;12.10;99.90
4749;DHT22;2388;53.582;9.962;2023-10-08T08:16:08;12.10;99.90
4749;DHT22;2388;53.582;9.962;2023-10-08T08:18:44;12.10;99.90
4749;DHT22;2388;53.582;9.962;2023-10-08T08:21:11;12.10;99.90
4749;DHT22;2388;53.582;9.962;2023-10-08T08:23:44;12.10;99.90
4749;DHT22;2388;53.582;9.962;2023-10-08T08:26:17;12.10;99.90
4749;DHT22;2388;53.582;9.962;2023-10-08T08:29:05;12.20;99.90
4749;DHT22;2388;53.582;9.962;2023-10-08T08:31:34;12.20;99.90
4749;DHT22;2388;53.582;9.962;2023-10-08T08:34:03;12.20;99.90
4749;DHT22;2388;53.582;9.962;2023-10-08T08:36:33;12.30;99.90
4749;DHT22;2388;53.582;9.962;2023-10-08T08:38:59;12.30;99.90
4749;DHT22;2388;53.582;9.962;2023-10-08T08:41:25;12.30;99.90
4749;DHT22;2388;53.582;9.962;2023-10-08T08:43:52;12.30;99.90
4749;DHT22;2388;53.582;9.962;2023-10-08T08:46:32;12.40;99.90
4749;DHT22;2388;53.582;9.962;2023-10-08T08:49:07;12.40;99.90
4749;DHT22;2388;53.582;9.962;2023-10-08T08:51:37;12.50;99.90
4749;DHT22;2388;53.582;9.962;2023-10-08T08:54:04;12.50;99.90
4749;DHT22;2388;53.582;9.962;2023-10-08T08:56:37;12.50;99.90
4749;DHT22;2388;53.582;9.962;2023-10-08T08:59:06;12.50;99.90
4749;DHT22;2388;53.582;9.962;2023-10-08T09:01:40;12.60;99.90
4749;DHT22;2388;53.582;9.962;2023-10-08T09:04:07;12.50;99.90
4749;DHT22;2388;53.582;9.962;2023-10-08T09:06:36;12.50;99.90
4749;DHT22;2388;53.582;9.962;2023-10-08T09:09:06;12.60;99.90
4749;DHT22;2388;53.582;9.962;2023-10-08T09:11:48;12.60;99.90
4749;DHT22;2388;53.582;9.962;2023-10-08T09:14:20;12.70;99.90
4749;DHT22;2388;53.582;9.962;2023-10-08T09:16:47;12.70;99.90
4749;DHT22;2388;53.582;9.962;2023-10-08T09:19:12;12.70;99.90
4749;DHT22;2388;53.582;9.962;2023-10-08T09:21:59;12.70;99.90
4749;DHT22;2388;53.582;9.962;2023-10-08T09:24:25;12.80;99.90
4749;DHT22;2388;53.582;9.962;2023-10-08T09:26:52;12.80;99.90
4749;DHT22;2388;53.582;9.962;2023-10-08T09:29:17;12.80;99.90
4749;DHT22;2388;53.582;9.962;2023-10-08T09:31:55;12.80;99.90
4749;DHT22;2388;53.582;9.962;2023-10-08T09:34:25;12.80;99.90
4749;DHT22;2388;53.582;9.962;2023-10-08T09:36:52;12.90;99.90
4749;DHT22;2388;53.582;9.962;2023-10-08T09:39:19;12.90;99.90
4749;DHT22;2388;53.582;9.962;2023-10-08T09:41:54;13.00;99.90
4749;DHT22;2388;53.582;9.962;2023-10-08T09:44:20;13.00;99.90
4749;DHT22;2388;53.582;9.962;2023-10-08T09:46:57;13.00;99.90
4749;DHT22;2388;53.582;9.962;2023-10-08T09:49:30;13.00;99.90
4749;DHT22;2388;53.582;9.962;2023-10-08T09:52:02;13.10;99.90
4749;DHT22;2388;53.582;9.962;2023-10-08T09:55:15;13.10;99.90
4749;DHT22;2388;53.582;9.962;2023-10-08T09:57:21;13.10;99.90
4749;DHT22;2388;53.582;9.962;2023-10-08T09:59:49;13.10;99.90
4749;DHT22;2388;53.582;9.962;2023-10-08T10:02:16;13.20;99.90
4749;DHT22;2388;53.582;9.962;2023-10-08T10:04:43;13.20;99.90
4749;DHT22;2388;53.582;9.962;2023-10-08T10:07:10;13.20;99.90
4749;DHT22;2388;53.582;9.962;2023-10-08T10:09:38;13.20;99.90
4749;DHT22;2388;53.582;9.962;2023-10-08T10:12:05;13.30;99.90
4749;DHT22;2388;53.582;9.962;2023-10-08T10:15:01;13.30;99.90
4749;DHT22;2388;53.582;9.962;2023-10-08T10:17:28;13.40;99.90
4749;DHT22;2388;53.582;9.962;2023-10-08T10:19:59;13.40;99.90
4749;DHT22;2388;53.582;9.962;2023-10-08T10:22:35;13.40;99.90
4749;DHT22;2388;53.582;9.962;2023-10-08T10:25:05;13.50;99.90
4749;DHT22;2388;53.582;9.962;2023-10-08T10:30:16;13.60;99.90
4749;DHT22;2388;53.582;9.962;2023-10-08T10:32:44;13.60;99.90
4749;DHT22;2388;53.582;9.962;2023-10-08T10:35:16;13.60;99.90
4749;DHT22;2388;53.582;9.962;2023-10-08T10:37:45;13.70;99.90
4749;DHT22;2388;53.582;9.962;2023-10-08T10:40:20;13.70;99.90
4749;DHT22;2388;53.582;9.962;2023-10-08T10:42:56;13.80;99.90
4749;DHT22;2388;53.582;9.962;2023-10-08T10:45:21;13.90;99.90
4749;DHT22;2388;53.582;9.962;2023-10-08T10:48:05;13.80;99.90
4749;DHT22;2388;53.582;9.962;2023-10-08T10:50:40;13.90;99.90
4749;DHT22;2388;53.582;9.962;2023-10-08T10:53:25;14.00;99.90
4749;DHT22;2388;53.582;9.962;2023-10-08T10:55:52;14.00;99.90
4749;DHT22;2388;53.582;9.962;2023-10-08T10:58:28;14.00;99.90
4749;DHT22;2388;53.582;9.962;2023-10-08T11:00:57;14.10;99.90
4749;DHT22;2388;53.582;9.962;2023-10-08T11:03:25;14.20;99.90
4749;DHT22;2388;53.582;9.962;2023-10-08T11:05:57;14.30;99.90
4749;DHT22;2388;53.582;9.962;2023-10-08T11:08:25;14.50;99.90
4749;DHT22;2388;53.582;9.962;2023-10-08T11:10:52;14.60;99.90
4749;DHT22;2388;53.582;9.962;2023-10-08T11:13:19;14.60;99.90
4749;DHT22;2388;53.582;9.962;2023-10-08T11:15:48;14.60;99.90
4749;DHT22;2388;53.582;9.962;2023-10-08T11:18:17;14.70;99.90
4749;DHT22;2388;53.582;9.962;2023-10-08T11:20:44;14.80;99.90
4749;DHT22;2388;53.582;9.962;2023-10-08T11:23:41;14.80;99.90
4749;DHT22;2388;53.582;9.962;2023-10-08T11:26:07;15.00;99.90
4749;DHT22;2388;53.582;9.962;2023-10-08T11:28:39;15.00;99.90
4749;DHT22;2388;53.582;9.962;2023-10-08T11:31:10;15.10;99.90
4749;DHT22;2388;53.582;9.962;2023-10-08T11:33:37;15.20;99.90
4749;DHT22;2388;53.582;9.962;2023-10-08T11:36:05;15.20;99.90
4749;DHT22;2388;53.582;9.962;2023-10-08T11:38:44;15.20;99.90
4749;DHT22;2388;53.582;9.962;2023-10-08T11:41:14;15.20;99.90
4749;DHT22;2388;53.582;9.962;2023-10-08T11:43:53;15.20;99.90
4749;DHT22;2388;53.582;9.962;2023-10-08T11:46:21;15.20;99.90
4749;DHT22;2388;53.582;9.962;2023-10-08T11:48:47;15.20;99.90
4749;DHT22;2388;53.582;9.962;2023-10-08T11:51:13;15.10;99.90
4749;DHT22;2388;53.582;9.962;2023-10-08T11:53:43;15.10;99.90
4749;DHT22;2388;53.582;9.962;2023-10-08T11:56:11;15.00;99.90
4749;DHT22;2388;53.582;9.962;2023-10-08T11:58:40;15.10;99.90
4749;DHT22;2388;53.582;9.962;2023-10-08T12:01:06;15.10;99.90
4749;DHT22;2388;53.582;9.962;2023-10-08T12:03:31;15.30;99.90
4749;DHT22;2388;53.582;9.962;2023-10-08T12:06:00;15.40;99.90
4749;DHT22;2388;53.582;9.962;2023-10-08T12:08:26;15.50;99.90
4749;DHT22;2388;53.582;9.962;2023-10-08T12:10:55;15.50;99.90
4749;DHT22;2388;53.582;9.962;2023-10-08T12:13:21;15.40;99.90
4749;DHT22;2388;53.582;9.962;2023-10-08T12:15:52;15.40;99.90
4749;DHT22;2388;53.582;9.962;2023-10-08T12:18:17;15.40;99.90
4749;DHT22;2388;53.582;9.962;2023-10-08T12:20:52;15.50;99.90
4749;DHT22;2388;53.582;9.962;2023-10-08T12:23:19;15.40;99.90
4749;DHT22;2388;53.582;9.962;2023-10-08T12:25:52;15.40;99.90
4749;DHT22;2388;53.582;9.962;2023-10-08T12:28:20;15.30;99.90
4749;DHT22;2388;53.582;9.962;2023-10-08T12:30:45;15.30;99.90
4749;DHT22;2388;53.582;9.962;2023-10-08T12:33:11;15.20;99.90
4749;DHT22;2388;53.582;9.962;2023-10-08T12:35:42;15.10;99.90
4749;DHT22;2388;53.582;9.962;2023-10-08T12:38:08;15.00;99.90
4749;DHT22;2388;53.582;9.962;2023-10-08T12:40:35;15.00;99.90
4749;DHT22;2388;53.582;9.962;2023-10-08T12:43:16;15.00;99.90
4749;DHT22;2388;53.582;9.962;2023-10-08T12:45:51;14.90;99.90
4749;DHT22;2388;53.582;9.962;2023-10-08T12:50:49;15.00;99.90
4749;DHT22;2388;53.582;9.962;2023-10-08T12:53:22;15.00;99.90
4749;DHT22;2388;53.582;9.962;2023-10-08T12:56:05;14.90;99.90
4749;DHT22;2388;53.582;9.962;2023-10-08T12:58:33;14.90;99.90
4749;DHT22;2388;53.582;9.962;2023-10-08T13:01:05;14.90;99.90
4749;DHT22;2388;53.582;9.962;2023-10-08T13:03:32;14.90;99.90
4749;DHT22;2388;53.582;9.962;2023-10-08T13:05:58;14.90;99.90
4749;DHT22;2388;53.582;9.962;2023-10-08T13:08:31;14.90;99.90
4749;DHT22;2388;53.582;9.962;2023-10-08T13:10:58;14.80;99.90
4749;DHT22;2388;53.582;9.962;2023-10-08T13:13:30;14.80;99.90
4749;DHT22;2388;53.582;9.962;2023-10-08T13:15:56;14.80;99.90
4749;DHT22;2388;53.582;9.962;2023-10-08T13:18:23;14.80;99.90
4749;DHT22;2388;53.582;9.962;2023-10-08T13:20:51;14.80;99.90
4749;DHT22;2388;53.582;9.962;2023-10-08T13:23:17;14.80;99.90
4749;DHT22;2388;53.582;9.962;2023-10-08T13:25:44;14.80;99.90
4749;DHT22;2388;53.582;9.962;2023-10-08T13:28:11;14.70;99.90
4749;DHT22;2388;53.582;9.962;2023-10-08T13:30:37;14.70;99.90
4749;DHT22;2388;53.582;9.962;2023-10-08T13:33:03;14.70;99.90
4749;DHT22;2388;53.582;9.962;2023-10-08T13:35:29;14.70;99.90
4749;DHT22;2388;53.582;9.962;2023-10-08T13:37:54;14.70;99.90
4749;DHT22;2388;53.582;9.962;2023-10-08T13:40:21;14.70;99.90
4749;DHT22;2388;53.582;9.962;2023-10-08T13:42:58;14.70;99.90
4749;DHT22;2388;53.582;9.962;2023-10-08T13:45:23;14.60;99.90
4749;DHT22;2388;53.582;9.962;2023-10-08T13:47:52;14.60;99.90
4749;DHT22;2388;53.582;9.962;2023-10-08T13:50:17;14.60;99.90
4749;DHT22;2388;53.582;9.962;2023-10-08T13:52:43;14.60;99.90
4749;DHT22;2388;53.582;9.962;2023-10-08T13:55:09;14.60;99.90
4749;DHT22;2388;53.582;9.962;2023-10-08T13:57:39;14.60;99.90
4749;DHT22;2388;53.582;9.962;2023-10-08T14:00:07;14.60;99.90
4749;DHT22;2388;53.582;9.962;2023-10-08T14:02:41;14.60;99.90
4749;DHT22;2388;53.582;9.962;2023-10-08T14:05:07;14.60;99.90
4749;DHT22;2388;53.582;9.962;2023-10-08T14:07:35;14.60;99.90
4749;DHT22;2388;53.582;9.962;2023-10-08T14:10:00;14.60;99.90
4749;DHT22;2388;53.582;9.962;2023-10-08T14:12:31;14.60;99.90
4749;DHT22;2388;53.582;9.962;2023-10-08T14:15:00;14.60;99.90
4749;DHT22;2388;53.582;9.962;2023-10-08T14:17:31;14.60;99.90
4749;DHT22;2388;53.582;9.962;2023-10-08T14:20:09;14.60;99.90
4749;DHT22;2388;53.582;9.962;2023-10-08T14:22:41;14.60;99.90
4749;DHT22;2388;53.582;9.962;2023-10-08T14:25:08;14.70;99.90
4749;DHT22;2388;53.582;9.962;2023-10-08T14:27:42;14.90;99.90
4749;DHT22;2388;53.582;9.962;2023-10-08T14:30:17;14.80;99.90
4749;DHT22;2388;53.582;9.962;2023-10-08T14:32:46;14.70;99.90
4749;DHT22;2388;53.582;9.962;2023-10-08T14:35:13;14.70;99.90
4749;DHT22;2388;53.582;9.962;2023-10-08T14:37:57;14.60;99.90
4749;DHT22;2388;53.582;9.962;2023-10-08T14:40:41;14.50;99.90
4749;DHT22;2388;53.582;9.962;2023-10-08T14:43:39;14.50;99.90
4749;DHT22;2388;53.582;9.962;2023-10-08T14:46:06;14.50;99.90
4749;DHT22;2388;53.582;9.962;2023-10-08T14:48:34;14.50;99.90
4749;DHT22;2388;53.582;9.962;2023-10-08T14:51:01;14.50;99.90
4749;DHT22;2388;53.582;9.962;2023-10-08T14:53:28;14.50;99.90
4749;DHT22;2388;53.582;9.962;2023-10-08T14:55:55;14.40;99.90
4749;DHT22;2388;53.582;9.962;2023-10-08T14:58:20;14.40;99.90
4749;DHT22;2388;53.582;9.962;2023-10-08T15:00:46;14.40;99.90
4749;DHT22;2388;53.582;9.962;2023-10-08T15:03:12;14.40;99.90
4749;DHT22;2388;53.582;9.962;2023-10-08T15:05:38;14.40;99.90
4749;DHT22;2388;53.582;9.962;2023-10-08T15:08:05;14.40;99.90
4749;DHT22;2388;53.582;9.962;2023-10-08T15:10:35;14.40;99.90
4749;DHT22;2388;53.582;9.962;2023-10-08T15:13:00;14.40;99.90
4749;DHT22;2388;53.582;9.962;2023-10-08T15:15:26;14.40;99.90
4749;DHT22;2388;53.582;9.962;2023-10-08T15:17:57;14.30;99.90
4749;DHT22;2388;53.582;9.962;2023-10-08T15:20:22;14.30;99.90
4749;DHT22;2388;53.582;9.962;2023-10-08T15:22:49;14.30;99.90
4749;DHT22;2388;53.582;9.962;2023-10-08T15:25:16;14.30;99.90
4749;DHT22;2388;53.582;9.962;2023-10-08T15:27:43;14.30;99.90
4749;DHT22;2388;53.582;9.962;2023-10-08T15:30:14;14.30;99.90
4749;DHT22;2388;53.582;9.962;2023-10-08T15:32:45;14.20;99.90
4749;DHT22;2388;53.582;9.962;2023-10-08T15:35:12;14.20;99.90
4749;DHT22;2388;53.582;9.962;2023-10-08T15:37:40;14.20;99.90
4749;DHT22;2388;53.582;9.962;2023-10-08T15:40:07;14.20;99.90
4749;DHT22;2388;53.582;9.962;2023-10-08T15:42:34;14.20;99.90
4749;DHT22;2388;53.582;9.962;2023-10-08T15:45:03;14.20;99.90
4749;DHT22;2388;53.582;9.962;2023-10-08T15:47:30;14.20;99.90
4749;DHT22;2388;53.582;9.962;2023-10-08T15:49:57;14.20;99.90
4749;DHT22;2388;53.582;9.962;2023-10-08T15:52:24;14.20;99.90
4749;DHT22;2388;53.582;9.962;2023-10-08T15:54:50;14.20;99.90
4749;DHT22;2388;53.582;9.962;2023-10-08T15:57:17;14.20;99.90
4749;DHT22;2388;53.582;9.962;2023-10-08T15:59:42;14.10;99.90
4749;DHT22;2388;53.582;9.962;2023-10-08T16:02:08;14.10;99.90
4749;DHT22;2388;53.582;9.962;2023-10-08T16:04:33;14.10;99.90
4749;DHT22;2388;53.582;9.962;2023-10-08T16:06:59;14.10;99.90
4749;DHT22;2388;53.582;9.962;2023-10-08T16:09:25;14.10;99.90
4749;DHT22;2388;53.582;9.962;2023-10-08T16:11:50;14.10;99.90
4749;DHT22;2388;53.582;9.962;2023-10-08T16:14:16;14.10;99.90
4749;DHT22;2388;53.582;9.962;2023-10-08T16:16:43;14.10;99.90
4749;DHT22;2388;53.582;9.962;2023-10-08T16:19:15;14.10;99.90
4749;DHT22;2388;53.582;9.962;2023-10-08T16:21:41;14.00;99.90
4749;DHT22;2388;53.582;9.962;2023-10-08T16:24:07;14.00;99.90
4749;DHT22;2388;53.582;9.962;2023-10-08T16:26:33;14.00;99.90
4749;DHT22;2388;53.582;9.962;2023-10-08T16:28:58;14.00;99.90
4749;DHT22;2388;53.582;9.962;2023-10-08T16:31:24;14.00;99.90
4749;DHT22;2388;53.582;9.962;2023-10-08T16:33:51;14.00;99.90
4749;DHT22;2388;53.582;9.962;2023-10-08T16:36:18;14.00;99.90